Time;durP1;ratioP1;P1;durP2;ratioP2;P2;SDS_P1;SDS_P2;PMS_P1;PMS_P2;Temp;Humidity;BMP_temperature;BMP_pressure;BME280_temperature;BME280_humidity;BME280_pressure;Samples;Min_cycle;Max_cycle;Signal;HPM_P1;HPM_P2
2021/03/25 00:00:29;;;;;;;5.20;2.33;;;;;;;;;;10553149;28;20226;-72
2021/03/25 00:05:32;;;;;;;6.57;2.37;;;;;;;;;;10579599;27;20224;-73
2021/03/25 00:10:36;;;;;;;6.07;2.10;;;;;;;;;;10578033;27;20184;-74
2021/03/25 00:15:38;;;;;;;5.67;1.93;;;;;;;;;;10553605;27;20257;-74
2021/03/25 00:20:39;;;;;;;6.17;2.20;;;;;;;;;;10579230;27;20498;-72
2021/03/25 00:25:42;;;;;;;6.27;2.27;;;;;;;;;;10579318;27;20350;-73
2021/03/25 00:30:44;;;;;;;4.60;1.90;;;;;;;;;;10558602;27;20303;-73
2021/03/25 00:35:47;;;;;;;2.40;0.90;;;;;;;;;;10578855;27;20218;-73
2021/03/25 00:40:50;;;;;;;5.83;1.93;;;;;;;;;;10576008;27;20206;-72
2021/03/25 00:45:51;;;;;;;7.93;2.20;;;;;;;;;;10583509;27;20576;-73
2021/03/25 00:50:54;;;;;;;5.20;1.80;;;;;;;;;;10582065;27;20278;-72
2021/03/25 00:55:57;;;;;;;3.00;1.60;;;;;;;;;;10601452;27;20719;-73
2021/03/25 01:01:00;;;;;;;4.00;1.70;;;;;;;;;;10577491;27;20247;-73
2021/03/25 01:06:03;;;;;;;3.93;1.80;;;;;;;;;;10586240;27;20706;-73
2021/03/25 01:11:07;;;;;;;4.73;1.80;;;;;;;;;;10578081;27;20266;-74
2021/03/25 01:16:09;;;;;;;3.67;1.60;;;;;;;;;;10576235;27;20203;-74
2021/03/25 01:21:11;;;;;;;3.53;1.57;;;;;;;;;;10571812;27;20203;-74
2021/03/25 01:26:13;;;;;;;2.80;1.17;;;;;;;;;;10572284;27;20214;-74
2021/03/25 01:31:15;;;;;;;5.90;1.73;;;;;;;;;;10559305;27;20209;-74
2021/03/25 01:36:17;;;;;;;3.20;1.73;;;;;;;;;;10557687;27;20286;-73
2021/03/25 01:41:20;;;;;;;3.93;1.60;;;;;;;;;;10572140;27;20571;-73
2021/03/25 01:46:24;;;;;;;4.13;1.43;;;;;;;;;;10569281;27;20242;-73
2021/03/25 01:51:30;;;;;;;3.03;1.30;;;;;;;;;;10570254;27;20231;-73
2021/03/25 01:56:36;;;;;;;4.23;1.60;;;;;;;;;;10576132;27;20226;-73
2021/03/25 02:01:40;;;;;;;4.50;1.53;;;;;;;;;;10576126;27;20250;-73
2021/03/25 02:06:45;;;;;;;5.23;1.40;;;;;;;;;;10554857;28;20194;-73
2021/03/25 02:11:50;;;;;;;3.77;1.50;;;;;;;;;;10567150;27;20215;-73
2021/03/25 02:16:57;;;;;;;2.67;1.37;;;;;;;;;;10574204;27;20191;-72
2021/03/25 02:22:14;;;;;;;3.93;1.30;;;;;;;;;;10578284;27;20223;-73
2021/03/25 02:27:23;;;;;;;4.30;1.47;;;;;;;;;;10567841;27;20670;-74
2021/03/25 02:32:27;;;;;;;1.73;0.83;;;;;;;;;;10583152;27;20301;-73
2021/03/25 02:37:32;;;;;;;2.00;0.87;;;;;;;;;;10564773;27;20240;-74
2021/03/25 02:42:36;;;;;;;4.33;1.90;;;;;;;;;;10581636;27;20219;-74
2021/03/25 02:47:40;;;;;;;4.27;1.60;;;;;;;;;;10582424;27;20290;-73
2021/03/25 02:52:44;;;;;;;3.53;1.33;;;;;;;;;;10555744;27;20260;-73
2021/03/25 02:57:51;;;;;;;2.77;1.17;;;;;;;;;;10582755;27;20204;-74
2021/03/25 03:02:56;;;;;;;3.73;1.73;;;;;;;;;;10577825;27;20223;-73
2021/03/25 03:08:03;;;;;;;1.77;1.27;;;;;;;;;;10567455;27;20663;-74
2021/03/25 03:13:07;;;;;;;4.23;1.30;;;;;;;;;;10547139;28;20219;-74
2021/03/25 03:18:12;;;;;;;3.87;1.30;;;;;;;;;;10547915;28;20217;-74
2021/03/25 03:23:13;;;;;;;6.37;1.80;;;;;;;;;;10578690;27;20218;-73
2021/03/25 03:28:19;;;;;;;2.30;1.20;;;;;;;;;;10573645;28;20202;-73
2021/03/25 03:33:22;;;;;;;2.63;0.97;;;;;;;;;;10570929;28;20230;-73
2021/03/25 03:38:27;;;;;;;3.53;1.30;;;;;;;;;;10559334;27;20197;-74
2021/03/25 03:43:29;;;;;;;3.90;1.40;;;;;;;;;;10577446;27;20240;-74
2021/03/25 03:48:35;;;;;;;3.03;1.50;;;;;;;;;;10560097;27;20246;-74
2021/03/25 03:53:39;;;;;;;2.23;1.20;;;;;;;;;;10587477;27;20211;-73
2021/03/25 03:58:45;;;;;;;3.53;1.40;;;;;;;;;;10578974;27;20199;-73
2021/03/25 04:03:48;;;;;;;2.53;1.27;;;;;;;;;;10563796;27;20677;-74
2021/03/25 04:08:54;;;;;;;4.50;1.47;;;;;;;;;;10574333;27;20196;-74
2021/03/25 04:13:58;;;;;;;4.00;1.50;;;;;;;;;;10570548;27;20288;-74
2021/03/25 04:19:03;;;;;;;4.73;1.47;;;;;;;;;;10575916;27;20283;-72
2021/03/25 04:24:07;;;;;;;1.43;0.90;;;;;;;;;;10576824;27;20217;-72
2021/03/25 04:29:12;;;;;;;2.67;1.47;;;;;;;;;;10575644;27;20199;-73
2021/03/25 04:34:14;;;;;;;4.20;1.60;;;;;;;;;;10556304;27;20199;-73
2021/03/25 04:39:17;;;;;;;4.67;1.77;;;;;;;;;;10570496;27;20195;-73
2021/03/25 04:44:32;;;;;;;4.63;1.80;;;;;;;;;;10580476;27;20670;-73
2021/03/25 04:49:36;;;;;;;4.07;1.50;;;;;;;;;;10575373;27;20333;-74
2021/03/25 04:54:39;;;;;;;3.50;1.60;;;;;;;;;;10577654;27;20653;-74
2021/03/25 04:59:40;;;;;;;3.63;1.50;;;;;;;;;;10578313;27;20201;-73
2021/03/25 05:04:45;;;;;;;5.10;1.60;;;;;;;;;;10560127;27;20227;-73
2021/03/25 05:09:46;;;;;;;3.03;1.47;;;;;;;;;;10568874;27;20256;-73
2021/03/25 05:14:49;;;;;;;4.27;1.47;;;;;;;;;;10549466;27;20214;-73
2021/03/25 05:19:57;;;;;;;5.60;1.50;;;;;;;;;;10571814;27;20225;-73
2021/03/25 05:25:04;;;;;;;2.70;1.10;;;;;;;;;;10575006;27;20215;-73
2021/03/25 05:30:07;;;;;;;5.40;2.20;;;;;;;;;;10575752;27;20191;-73
2021/03/25 05:35:12;;;;;;;6.27;2.00;;;;;;;;;;10582513;27;20203;-72
2021/03/25 05:40:17;;;;;;;6.87;1.97;;;;;;;;;;10575585;27;20187;-73
2021/03/25 05:45:26;;;;;;;5.30;1.80;;;;;;;;;;10577174;27;20222;-73
2021/03/25 05:50:32;;;;;;;5.50;2.23;;;;;;;;;;10578954;27;20203;-73
2021/03/25 05:55:55;;;;;;;7.93;2.30;;;;;;;;;;10572319;27;20214;-72
2021/03/25 06:01:03;;;;;;;4.63;1.97;;;;;;;;;;10559780;27;20286;-71
2021/03/25 06:06:14;;;;;;;8.03;2.10;;;;;;;;;;10568692;27;20223;-70
2021/03/25 06:11:22;;;;;;;4.23;1.93;;;;;;;;;;10541583;27;20198;-70
2021/03/25 06:16:35;;;;;;;4.77;2.10;;;;;;;;;;10560579;27;20191;-71
2021/03/25 06:21:48;;;;;;;4.93;1.70;;;;;;;;;;10569377;27;20218;-71
2021/03/25 06:26:58;;;;;;;9.70;2.70;;;;;;;;;;10576300;27;20191;-73
2021/03/25 06:32:03;;;;;;;4.37;1.93;;;;;;;;;;10570590;27;20264;-72
2021/03/25 06:37:13;;;;;;;4.60;2.10;;;;;;;;;;10569922;27;20655;-71
2021/03/25 06:42:18;;;;;;;7.67;2.77;;;;;;;;;;10567589;27;20306;-72
2021/03/25 06:47:36;;;;;;;6.37;2.40;;;;;;;;;;10567055;27;20194;-70
2021/03/25 06:52:39;;;;;;;5.53;2.33;;;;;;;;;;10569608;27;20242;-72
2021/03/25 06:57:42;;;;;;;6.17;2.33;;;;;;;;;;10571563;27;20199;-71
2021/03/25 07:02:45;;;;;;;7.03;1.93;;;;;;;;;;10580646;27;20602;-72
2021/03/25 07:07:53;;;;;;;5.77;2.30;;;;;;;;;;10584245;27;20244;-72
2021/03/25 07:13:02;;;;;;;5.53;2.20;;;;;;;;;;10544575;27;20271;-71
2021/03/25 07:18:28;;;;;;;6.90;2.30;;;;;;;;;;10575290;27;20211;-72
2021/03/25 07:23:42;;;;;;;5.20;2.40;;;;;;;;;;10553643;27;20238;-71
2021/03/25 07:28:56;;;;;;;5.80;2.20;;;;;;;;;;10582094;28;20190;-72
2021/03/25 07:33:58;;;;;;;6.28;2.30;;;;;;;;;;10560159;28;20310;-71
2021/03/25 07:39:04;;;;;;;7.80;2.50;;;;;;;;;;10555683;28;20677;-72
2021/03/25 07:44:07;;;;;;;5.57;2.45;;;;;;;;;;10574065;28;20234;-72
2021/03/25 07:49:14;;;;;;;8.73;2.30;;;;;;;;;;10575971;28;20700;-72
2021/03/25 07:54:26;;;;;;;5.45;2.47;;;;;;;;;;10579018;28;20207;-71
2021/03/25 07:59:34;;;;;;;7.95;2.78;;;;;;;;;;10574452;28;20191;-72
2021/03/25 08:04:35;;;;;;;5.32;2.65;;;;;;;;;;10571178;28;20219;-72
2021/03/25 08:09:43;;;;;;;6.28;3.28;;;;;;;;;;10575827;28;20194;-72
2021/03/25 08:14:44;;;;;;;8.25;3.38;;;;;;;;;;10562351;28;20284;-73
2021/03/25 08:19:51;;;;;;;8.85;4.10;;;;;;;;;;10573125;28;20233;-70
2021/03/25 08:25:08;;;;;;;8.98;4.00;;;;;;;;;;10576852;27;20291;-72
2021/03/25 08:30:27;;;;;;;9.63;4.72;;;;;;;;;;10582139;27;20212;-71
2021/03/25 08:35:35;;;;;;;9.52;5.80;;;;;;;;;;10576512;27;20242;-72
2021/03/25 08:40:41;;;;;;;13.55;6.28;;;;;;;;;;10555655;28;20192;-72
2021/03/25 08:45:48;;;;;;;12.13;6.30;;;;;;;;;;10581090;27;20227;-72
2021/03/25 08:50:58;;;;;;;10.38;5.88;;;;;;;;;;10559615;27;20195;-72
2021/03/25 08:56:03;;;;;;;10.48;6.03;;;;;;;;;;10564070;27;20551;-72
2021/03/25 09:01:07;;;;;;;9.98;6.28;;;;;;;;;;10567054;27;20286;-71
2021/03/25 09:06:11;;;;;;;9.98;6.15;;;;;;;;;;10579524;27;20202;-72
2021/03/25 09:11:14;;;;;;;10.63;6.07;;;;;;;;;;10583501;27;20191;-72
2021/03/25 09:16:19;;;;;;;9.60;5.97;;;;;;;;;;10565277;28;20227;-74
2021/03/25 09:21:23;;;;;;;12.02;6.88;;;;;;;;;;10584528;27;20221;-73
2021/03/25 09:26:48;;;;;;;11.68;7.47;;;;;;;;;;10576466;27;20221;-73
2021/03/25 09:32:08;;;;;;;20.48;8.82;;;;;;;;;;10563237;27;20309;-73
2021/03/25 09:37:18;;;;;;;11.00;7.70;;;;;;;;;;10563969;27;20210;-72
2021/03/25 09:42:25;;;;;;;12.23;7.10;;;;;;;;;;10581295;27;20263;-71
2021/03/25 09:47:42;;;;;;;12.45;8.02;;;;;;;;;;10560014;27;20631;-72
2021/03/25 09:52:46;;;;;;;11.13;7.82;;;;;;;;;;10562012;27;20218;-70
2021/03/25 09:57:48;;;;;;;11.00;7.85;;;;;;;;;;10577753;27;20199;-72
2021/03/25 10:02:51;;;;;;;12.30;8.20;;;;;;;;;;10573167;27;20207;-72
2021/03/25 10:07:56;;;;;;;13.48;8.68;;;;;;;;;;10582460;27;20296;-71
2021/03/25 10:13:18;;;;;;;10.98;8.38;;;;;;;;;;10570277;27;20230;-74
2021/03/25 10:18:38;;;;;;;10.52;7.72;;;;;;;;;;10578351;27;20255;-71
2021/03/25 10:23:46;;;;;;;12.00;8.25;;;;;;;;;;10556592;27;20632;-72
2021/03/25 10:28:49;;;;;;;12.73;8.20;;;;;;;;;;10579665;27;20273;-73
2021/03/25 10:33:53;;;;;;;10.90;7.95;;;;;;;;;;10565350;27;20214;-72
2021/03/25 10:38:59;;;;;;;10.52;7.53;;;;;;;;;;10567724;27;20230;-72
2021/03/25 10:44:15;;;;;;;11.18;8.48;;;;;;;;;;10545674;28;20219;-72
2021/03/25 10:49:19;;;;;;;10.73;8.15;;;;;;;;;;10567437;27;20243;-71
2021/03/25 10:54:27;;;;;;;11.40;7.50;;;;;;;;;;10555395;27;20395;-71
2021/03/25 10:59:29;;;;;;;11.68;7.15;;;;;;;;;;10576964;27;20253;-73
2021/03/25 11:04:32;;;;;;;12.13;8.25;;;;;;;;;;10576636;27;20276;-72
2021/03/25 11:09:35;;;;;;;13.43;8.10;;;;;;;;;;10572825;27;20199;-72
2021/03/25 11:14:40;;;;;;;11.18;7.70;;;;;;;;;;10559750;28;20242;-73
2021/03/25 11:19:42;;;;;;;10.70;7.10;;;;;;;;;;10572461;27;20226;-73
2021/03/25 11:24:45;;;;;;;12.13;7.93;;;;;;;;;;10566303;28;20383;-73
2021/03/25 11:29:47;;;;;;;11.50;8.05;;;;;;;;;;10568587;28;20323;-74
2021/03/25 11:34:50;;;;;;;10.80;7.53;;;;;;;;;;10571654;28;20246;-72
2021/03/25 11:40:00;;;;;;;11.20;7.55;;;;;;;;;;10571633;28;20273;-72
2021/03/25 11:45:05;;;;;;;12.35;7.68;;;;;;;;;;10569278;28;20283;-73
2021/03/25 11:50:09;;;;;;;10.60;7.35;;;;;;;;;;10563129;28;20195;-72
2021/03/25 11:55:29;;;;;;;10.07;6.30;;;;;;;;;;10569569;28;20299;-72
2021/03/25 12:00:32;;;;;;;10.80;6.68;;;;;;;;;;10577494;27;20191;-73
2021/03/25 12:05:41;;;;;;;9.57;6.10;;;;;;;;;;10579979;27;20221;-73
2021/03/25 12:10:43;;;;;;;9.95;6.35;;;;;;;;;;10579185;27;20230;-72
2021/03/25 12:15:46;;;;;;;9.60;6.18;;;;;;;;;;10576600;27;20954;-69
2021/03/25 12:20:48;;;;;;;9.15;5.50;;;;;;;;;;10582387;27;20256;-70
2021/03/25 12:25:51;;;;;;;8.77;5.50;;;;;;;;;;10583640;27;20275;-72
2021/03/25 12:30:54;;;;;;;10.75;6.53;;;;;;;;;;10582563;27;20205;-72
2021/03/25 12:35:56;;;;;;;8.90;5.55;;;;;;;;;;10578916;27;20215;-70
2021/03/25 12:40:58;;;;;;;9.65;5.55;;;;;;;;;;10581706;27;20286;-70
2021/03/25 12:46:03;;;;;;;8.00;4.63;;;;;;;;;;10561987;28;20225;-70
2021/03/25 12:51:06;;;;;;;8.73;5.20;;;;;;;;;;10579670;27;20199;-72
2021/03/25 12:56:12;;;;;;;9.02;4.60;;;;;;;;;;10564346;27;20309;-72
2021/03/25 13:01:30;;;;;;;7.28;4.68;;;;;;;;;;10568880;27;20729;-70
2021/03/25 13:06:32;;;;;;;6.57;3.80;;;;;;;;;;10581033;27;20581;-71
2021/03/25 13:11:33;;;;;;;8.45;4.70;;;;;;;;;;10575292;27;20279;-70
2021/03/25 13:16:38;;;;;;;8.20;4.45;;;;;;;;;;10574094;27;20188;-72
2021/03/25 13:21:40;;;;;;;8.90;4.68;;;;;;;;;;10560274;27;20222;-72
2021/03/25 13:26:42;;;;;;;8.38;4.50;;;;;;;;;;10580338;27;20583;-71
2021/03/25 13:31:44;;;;;;;9.07;5.20;;;;;;;;;;10586160;27;20234;-72
2021/03/25 13:36:46;;;;;;;9.43;5.30;;;;;;;;;;10578728;27;20195;-71
2021/03/25 13:41:48;;;;;;;10.13;4.47;;;;;;;;;;10560581;27;20221;-71
2021/03/25 13:46:50;;;;;;;8.07;4.32;;;;;;;;;;10581521;27;20634;-71
2021/03/25 13:51:52;;;;;;;10.50;4.53;;;;;;;;;;10579347;27;20617;-73
2021/03/25 13:56:54;;;;;;;8.20;4.30;;;;;;;;;;10578335;27;20601;-73
2021/03/25 14:01:57;;;;;;;7.78;4.25;;;;;;;;;;10581355;27;20223;-74
2021/03/25 14:06:59;;;;;;;7.35;3.80;;;;;;;;;;10582395;27;20221;-72
2021/03/25 14:12:03;;;;;;;7.22;4.20;;;;;;;;;;10577130;27;20242;-73
2021/03/25 14:17:17;;;;;;;7.47;3.97;;;;;;;;;;10588979;27;20905;-72
2021/03/25 14:22:19;;;;;;;6.78;3.72;;;;;;;;;;10569661;27;20210;-72
2021/03/25 14:27:20;;;;;;;7.05;3.60;;;;;;;;;;10573375;27;20279;-70
2021/03/25 14:32:24;;;;;;;7.72;3.67;;;;;;;;;;10578363;27;20199;-70
2021/03/25 14:37:25;;;;;;;8.60;3.40;;;;;;;;;;10558689;27;20187;-70
2021/03/25 14:42:27;;;;;;;10.43;3.78;;;;;;;;;;10565622;27;20267;-71
2021/03/25 14:47:29;;;;;;;8.07;3.40;;;;;;;;;;10604665;28;20202;-72
2021/03/25 14:52:31;;;;;;;6.90;3.60;;;;;;;;;;10609715;28;20218;-71
2021/03/25 14:57:33;;;;;;;11.43;4.25;;;;;;;;;;10609170;28;20187;-72
2021/03/25 15:02:36;;;;;;;7.10;3.63;;;;;;;;;;10602868;28;20218;-71
2021/03/25 15:07:38;;;;;;;8.00;3.55;;;;;;;;;;10592320;28;20209;-71
2021/03/25 15:12:39;;;;;;;8.15;3.58;;;;;;;;;;10578735;28;20210;-70
2021/03/25 15:17:42;;;;;;;10.80;4.00;;;;;;;;;;10570056;28;20193;-71
2021/03/25 15:22:44;;;;;;;7.78;4.00;;;;;;;;;;10569656;28;20218;-70
2021/03/25 15:27:46;;;;;;;8.50;4.05;;;;;;;;;;10575543;28;20194;-72
2021/03/25 15:32:49;;;;;;;9.13;4.03;;;;;;;;;;10552202;28;20282;-72
2021/03/25 15:37:50;;;;;;;8.13;3.90;;;;;;;;;;10573848;28;20214;-71
2021/03/25 15:42:52;;;;;;;8.33;3.73;;;;;;;;;;10544342;28;587104;-73
2021/03/25 15:47:55;;;;;;;8.53;3.70;;;;;;;;;;10564367;28;20195;-71
2021/03/25 15:52:57;;;;;;;9.93;3.70;;;;;;;;;;10568911;28;20211;-70
2021/03/25 15:57:59;;;;;;;7.13;3.10;;;;;;;;;;10564086;28;20225;-71
2021/03/25 16:03:03;;;;;;;8.07;3.77;;;;;;;;;;10558042;28;20493;-72
2021/03/25 16:08:05;;;;;;;8.00;4.00;;;;;;;;;;10571808;28;20242;-71
2021/03/25 16:13:07;;;;;;;7.93;3.93;;;;;;;;;;10557745;28;20219;-72
2021/03/25 16:18:11;;;;;;;8.90;4.17;;;;;;;;;;10559910;28;20278;-72
2021/03/25 16:23:15;;;;;;;7.63;3.77;;;;;;;;;;10559336;28;20239;-73
2021/03/25 16:28:18;;;;;;;9.13;3.77;;;;;;;;;;10573257;28;20508;-72
2021/03/25 16:33:21;;;;;;;9.10;3.80;;;;;;;;;;10572749;28;20699;-72
2021/03/25 16:38:24;;;;;;;8.10;3.60;;;;;;;;;;10570085;28;20274;-71
2021/03/25 16:43:29;;;;;;;8.13;3.90;;;;;;;;;;10583260;27;20211;-75
2021/03/25 16:48:33;;;;;;;8.47;3.73;;;;;;;;;;10579135;27;20720;-74
2021/03/25 16:53:35;;;;;;;9.43;3.60;;;;;;;;;;10558531;27;20260;-74
2021/03/25 16:58:37;;;;;;;7.40;3.17;;;;;;;;;;10567464;27;20191;-74
2021/03/25 17:03:40;;;;;;;8.53;3.60;;;;;;;;;;10545813;27;20245;-75
2021/03/25 17:08:41;;;;;;;8.80;3.70;;;;;;;;;;10580703;27;20220;-72
2021/03/25 17:13:44;;;;;;;8.83;3.90;;;;;;;;;;10569097;27;20566;-74
2021/03/25 17:19:03;;;;;;;11.30;3.60;;;;;;;;;;10571355;27;20646;-74
2021/03/25 17:24:05;;;;;;;9.80;4.00;;;;;;;;;;10579799;27;20282;-72
2021/03/25 17:29:07;;;;;;;10.90;4.27;;;;;;;;;;10581803;27;20674;-73
2021/03/25 17:34:09;;;;;;;14.60;5.13;;;;;;;;;;10586415;27;20246;-74
2021/03/25 17:39:11;;;;;;;9.70;5.00;;;;;;;;;;10570675;27;20183;-75
2021/03/25 17:44:12;;;;;;;18.47;5.30;;;;;;;;;;10574207;27;20288;-73
2021/03/25 17:49:15;;;;;;;12.23;5.00;;;;;;;;;;10571165;27;20671;-73
2021/03/25 17:54:16;;;;;;;10.03;4.00;;;;;;;;;;10553265;27;20344;-74
2021/03/25 17:59:19;;;;;;;11.87;4.60;;;;;;;;;;10573455;27;20683;-73
2021/03/25 18:04:22;;;;;;;12.23;4.53;;;;;;;;;;10579835;27;20238;-74
2021/03/25 18:09:24;;;;;;;12.30;5.00;;;;;;;;;;10552113;27;20274;-74
2021/03/25 18:14:25;;;;;;;9.40;4.60;;;;;;;;;;10566736;27;20199;-74
2021/03/25 18:19:28;;;;;;;12.27;5.40;;;;;;;;;;10582118;27;20660;-74
2021/03/25 18:24:30;;;;;;;13.57;4.97;;;;;;;;;;10558620;27;20267;-73
2021/03/25 18:29:32;;;;;;;11.97;5.20;;;;;;;;;;10579693;27;20240;-74
2021/03/25 18:34:34;;;;;;;13.13;5.30;;;;;;;;;;10567016;27;20211;-73
2021/03/25 18:39:36;;;;;;;12.00;5.27;;;;;;;;;;10573666;27;20305;-75
2021/03/25 18:44:39;;;;;;;14.63;5.70;;;;;;;;;;10573201;27;20218;-76
2021/03/25 18:49:41;;;;;;;12.17;5.03;;;;;;;;;;10573149;27;20221;-73
2021/03/25 18:54:44;;;;;;;10.60;4.90;;;;;;;;;;10574711;27;20214;-74
2021/03/25 18:59:45;;;;;;;11.57;5.60;;;;;;;;;;10573704;27;20223;-72
2021/03/25 19:04:48;;;;;;;12.23;5.20;;;;;;;;;;10566454;27;20282;-70
2021/03/25 19:09:49;;;;;;;11.97;4.97;;;;;;;;;;10552101;27;20658;-71
2021/03/25 19:14:51;;;;;;;13.73;4.70;;;;;;;;;;10575406;27;20323;-70
2021/03/25 19:19:55;;;;;;;10.27;4.80;;;;;;;;;;10567464;27;20202;-71
2021/03/25 19:24:57;;;;;;;12.47;5.53;;;;;;;;;;10556809;28;20214;-69
2021/03/25 19:29:59;;;;;;;12.10;5.10;;;;;;;;;;10559691;28;20725;-71
2021/03/25 19:35:03;;;;;;;10.40;4.90;;;;;;;;;;10571153;28;20218;-72
2021/03/25 19:40:06;;;;;;;14.10;6.70;;;;;;;;;;10568319;28;20503;-73
2021/03/25 19:45:09;;;;;;;9.63;4.50;;;;;;;;;;10574727;28;20238;-72
2021/03/25 19:50:13;;;;;;;11.60;4.73;;;;;;;;;;10579840;28;20263;-73
2021/03/25 19:55:15;;;;;;;10.87;4.23;;;;;;;;;;10549702;28;20593;-71
2021/03/25 20:00:18;;;;;;;9.83;4.23;;;;;;;;;;10577368;28;20251;-72
2021/03/25 20:05:22;;;;;;;10.20;3.97;;;;;;;;;;10552604;28;20210;-72
2021/03/25 20:10:24;;;;;;;9.40;4.10;;;;;;;;;;10578502;28;20574;-71
2021/03/25 20:15:28;;;;;;;11.07;4.30;;;;;;;;;;10567429;28;20276;-70
2021/03/25 20:20:30;;;;;;;9.33;3.73;;;;;;;;;;10580127;27;20231;-71
2021/03/25 20:25:32;;;;;;;7.83;3.87;;;;;;;;;;10558972;27;20224;-72
2021/03/25 20:30:35;;;;;;;12.40;4.67;;;;;;;;;;10549238;27;20201;-71
2021/03/25 20:35:38;;;;;;;10.97;4.53;;;;;;;;;;10571462;27;20280;-71
2021/03/25 20:40:40;;;;;;;8.93;3.83;;;;;;;;;;10569108;28;20187;-71
2021/03/25 20:45:43;;;;;;;10.43;4.30;;;;;;;;;;10577347;27;20233;-71
2021/03/25 20:50:46;;;;;;;9.83;4.70;;;;;;;;;;10570174;27;20260;-72
2021/03/25 20:55:47;;;;;;;11.17;4.93;;;;;;;;;;10556325;27;20241;-70
2021/03/25 21:00:50;;;;;;;10.00;4.57;;;;;;;;;;10573340;27;20248;-71
2021/03/25 21:05:52;;;;;;;11.33;4.80;;;;;;;;;;10568745;27;20211;-71
2021/03/25 21:10:55;;;;;;;9.33;3.97;;;;;;;;;;10578138;27;20191;-71
2021/03/25 21:15:57;;;;;;;8.27;3.63;;;;;;;;;;10576423;27;20229;-71
2021/03/25 21:21:00;;;;;;;11.03;4.10;;;;;;;;;;10560603;27;20195;-70
2021/03/25 21:26:05;;;;;;;8.77;3.63;;;;;;;;;;10574339;27;20234;-71
2021/03/25 21:31:07;;;;;;;10.50;3.83;;;;;;;;;;10572741;27;20195;-70
2021/03/25 21:36:10;;;;;;;7.93;3.83;;;;;;;;;;10579007;27;20214;-72
2021/03/25 21:41:12;;;;;;;9.50;3.73;;;;;;;;;;10592679;27;20210;-71
2021/03/25 21:46:14;;;;;;;10.53;3.80;;;;;;;;;;10594532;27;20198;-71
2021/03/25 21:51:21;;;;;;;8.27;3.23;;;;;;;;;;10580820;27;20651;-70
2021/03/25 21:56:24;;;;;;;9.20;3.70;;;;;;;;;;10583680;27;20558;-71
2021/03/25 22:01:26;;;;;;;8.07;3.30;;;;;;;;;;10576440;27;20198;-71
2021/03/25 22:06:29;;;;;;;7.60;3.07;;;;;;;;;;10580224;27;20219;-71
2021/03/25 22:11:32;;;;;;;8.73;3.33;;;;;;;;;;10554591;27;20295;-71
2021/03/25 22:16:35;;;;;;;8.83;3.63;;;;;;;;;;10579485;27;20242;-71
2021/03/25 22:21:38;;;;;;;9.03;3.47;;;;;;;;;;10558837;27;20215;-70
2021/03/25 22:26:40;;;;;;;9.20;3.63;;;;;;;;;;10577254;27;20199;-73
2021/03/25 22:31:41;;;;;;;9.97;3.93;;;;;;;;;;10578403;27;20334;-72
2021/03/25 22:36:45;;;;;;;10.40;4.40;;;;;;;;;;10561078;27;20230;-71
2021/03/25 22:41:46;;;;;;;11.40;4.30;;;;;;;;;;10575057;27;20291;-71
2021/03/25 22:46:48;;;;;;;9.47;4.50;;;;;;;;;;10577402;27;20263;-68
2021/03/25 22:51:51;;;;;;;9.80;3.73;;;;;;;;;;10573086;27;20215;-71
2021/03/25 22:56:53;;;;;;;9.37;4.33;;;;;;;;;;10577025;27;20256;-70
2021/03/25 23:02:10;;;;;;;11.37;4.70;;;;;;;;;;10564950;27;20214;-70
2021/03/25 23:07:13;;;;;;;11.87;4.43;;;;;;;;;;10579018;27;20607;-70
2021/03/25 23:12:17;;;;;;;10.30;4.33;;;;;;;;;;10570723;27;20215;-70
2021/03/25 23:17:19;;;;;;;12.20;4.43;;;;;;;;;;10563191;28;20215;-71
2021/03/25 23:22:23;;;;;;;9.10;4.53;;;;;;;;;;10573610;27;20416;-71
2021/03/25 23:27:25;;;;;;;10.40;4.30;;;;;;;;;;10557666;27;20187;-71
2021/03/25 23:32:27;;;;;;;13.03;4.50;;;;;;;;;;10580578;27;20217;-71
2021/03/25 23:37:30;;;;;;;9.93;4.40;;;;;;;;;;10580057;28;20720;-70
2021/03/25 23:42:37;;;;;;;11.43;4.70;;;;;;;;;;10573872;28;20250;-71
2021/03/25 23:47:39;;;;;;;10.90;4.20;;;;;;;;;;10570068;28;20186;-71
2021/03/25 23:52:41;;;;;;;10.67;4.63;;;;;;;;;;10572637;27;20234;-71
2021/03/25 23:57:44;;;;;;;10.93;4.50;;;;;;;;;;10583648;27;20246;-71
